createdAt,value
2018-07-27T00:00:52.566Z,21.76
2018-07-27T00:01:52.537Z,21.73
2018-07-27T00:02:52.525Z,21.62
2018-07-27T00:03:52.516Z,21.66
2018-07-27T00:04:52.505Z,21.67
2018-07-27T00:05:52.515Z,21.73
2018-07-27T00:06:52.492Z,21.67
2018-07-27T00:07:52.486Z,21.72
2018-07-27T00:08:52.466Z,21.73
2018-07-27T00:09:52.450Z,21.79
2018-07-27T00:10:52.461Z,21.69
2018-07-27T00:11:52.429Z,21.72
2018-07-27T00:12:52.418Z,21.89
2018-07-27T00:13:52.407Z,21.95
2018-07-27T00:14:52.396Z,22.00
2018-07-27T00:15:52.405Z,21.95
2018-07-27T00:16:52.381Z,21.91
2018-07-27T00:17:52.365Z,21.96
2018-07-27T00:18:52.354Z,21.91
2018-07-27T00:19:52.344Z,21.91
2018-07-27T00:20:52.354Z,21.99
2018-07-27T00:21:52.324Z,21.91
2018-07-27T00:22:52.311Z,21.80
2018-07-27T00:23:52.301Z,21.88
2018-07-27T00:24:52.292Z,21.88
2018-07-27T00:25:52.298Z,21.80
2018-07-27T00:26:52.269Z,21.88
2018-07-27T00:27:52.257Z,21.85
2018-07-27T00:28:52.247Z,21.79
2018-07-27T00:29:52.238Z,21.72
2018-07-27T00:30:52.244Z,21.75
2018-07-27T00:31:52.215Z,21.75
2018-07-27T00:32:52.209Z,21.75
2018-07-27T00:33:52.197Z,21.66
2018-07-27T00:34:52.183Z,21.73
2018-07-27T00:35:52.199Z,21.72
2018-07-27T00:36:52.179Z,21.67
2018-07-27T00:37:52.152Z,21.79
2018-07-27T00:38:52.141Z,21.80
2018-07-27T00:39:52.130Z,21.85
2018-07-27T00:40:52.139Z,21.83
2018-07-27T00:41:52.108Z,21.73
2018-07-27T00:42:52.101Z,21.76
2018-07-27T00:43:52.087Z,21.61
2018-07-27T00:44:52.102Z,21.62
2018-07-27T00:45:52.085Z,21.64
2018-07-27T00:46:52.059Z,21.58
2018-07-27T00:47:52.044Z,21.60
2018-07-27T00:48:52.034Z,21.61
2018-07-27T00:49:52.034Z,21.54
2018-07-27T00:50:52.038Z,21.45
2018-07-27T00:51:52.001Z,21.36
2018-07-27T00:52:51.990Z,21.33
2018-07-27T00:53:51.990Z,21.33
2018-07-27T00:54:51.969Z,21.30
2018-07-27T00:55:51.977Z,21.22
2018-07-27T00:56:51.948Z,21.20
2018-07-27T00:57:51.937Z,21.12
2018-07-27T00:58:51.928Z,21.03
2018-07-27T00:59:51.925Z,21.02
2018-07-27T01:00:51.925Z,20.97
2018-07-27T01:01:51.919Z,20.95
2018-07-27T01:02:51.897Z,20.87
2018-07-27T01:03:51.872Z,20.88
2018-07-27T01:04:51.865Z,20.75
2018-07-27T01:05:51.871Z,20.78
2018-07-27T01:06:51.840Z,20.74
2018-07-27T01:07:51.831Z,20.63
2018-07-27T01:08:51.818Z,20.60
2018-07-27T01:09:51.807Z,20.58
2018-07-27T01:10:51.817Z,20.51
2018-07-27T01:11:51.786Z,20.43
2018-07-27T01:12:51.774Z,20.51
2018-07-27T01:13:51.768Z,20.40
2018-07-27T01:14:51.759Z,20.29
2018-07-27T01:15:51.764Z,20.28
2018-07-27T01:16:51.740Z,20.32
2018-07-27T01:17:51.720Z,20.29
2018-07-27T01:18:51.709Z,20.22
2018-07-27T01:19:51.698Z,20.18
2018-07-27T01:20:51.714Z,20.25
2018-07-27T01:21:51.676Z,20.14
2018-07-27T01:22:51.667Z,20.07
2018-07-27T01:23:51.655Z,20.10
2018-07-27T01:24:51.644Z,20.07
2018-07-27T01:25:51.652Z,20.04
2018-07-27T01:26:51.622Z,20.03
2018-07-27T01:27:51.611Z,20.03
2018-07-27T01:28:51.601Z,19.95
2018-07-27T01:29:51.590Z,19.94
2018-07-27T01:30:51.598Z,19.84
2018-07-27T01:31:51.614Z,19.86
2018-07-27T01:32:51.558Z,19.82
2018-07-27T01:33:51.546Z,19.82
2018-07-27T01:34:51.535Z,19.79
2018-07-27T01:35:51.543Z,19.70
2018-07-27T01:36:51.514Z,19.76
2018-07-27T01:37:51.506Z,19.64
2018-07-27T01:38:51.493Z,19.69
2018-07-27T01:39:51.487Z,19.66
2018-07-27T01:40:51.497Z,19.62
2018-07-27T01:41:51.459Z,19.63
2018-07-27T01:42:51.446Z,19.69
2018-07-27T01:43:51.448Z,19.67
2018-07-27T01:44:51.426Z,19.67
2018-07-27T01:45:51.432Z,19.77
2018-07-27T01:46:51.403Z,19.79
2018-07-27T01:47:51.392Z,19.82
2018-07-27T01:48:51.380Z,19.85
2018-07-27T01:49:51.371Z,19.84
2018-07-27T01:50:51.382Z,19.92
2018-07-27T01:51:51.348Z,19.92
2018-07-27T01:52:51.349Z,19.88
2018-07-27T01:53:51.329Z,19.99
2018-07-27T01:54:51.314Z,19.94
2018-07-27T01:55:51.342Z,19.99
2018-07-27T01:56:51.292Z,19.95
2018-07-27T01:57:51.284Z,20.04
2018-07-27T01:58:51.269Z,19.94
2018-07-27T01:59:51.259Z,19.85
2018-07-27T02:00:51.274Z,19.85
2018-07-27T02:01:51.236Z,19.88
2018-07-27T02:02:51.226Z,19.77
2018-07-27T02:03:51.217Z,19.73
2018-07-27T02:04:51.203Z,19.55
2018-07-27T02:05:51.208Z,19.52
2018-07-27T02:06:51.201Z,19.45
2018-07-27T02:07:51.171Z,19.48
2018-07-27T02:08:51.164Z,19.47
2018-07-27T02:09:51.152Z,19.45
2018-07-27T02:10:51.142Z,19.37
2018-07-27T02:11:51.151Z,19.37
2018-07-27T02:12:51.115Z,19.33
2018-07-27T02:13:51.103Z,19.40
2018-07-27T02:14:51.101Z,19.34
2018-07-27T02:15:51.084Z,19.33
2018-07-27T02:16:51.092Z,19.29
2018-07-27T02:17:51.059Z,19.27
2018-07-27T02:18:51.049Z,19.22
2018-07-27T02:19:51.038Z,19.22
2018-07-27T02:20:51.028Z,19.33
2018-07-27T02:21:51.049Z,19.33
2018-07-27T02:22:51.006Z,19.37
2018-07-27T02:23:50.996Z,19.37
2018-07-27T02:24:50.984Z,19.49
2018-07-27T02:25:50.975Z,19.51
2018-07-27T02:26:50.981Z,19.45
2018-07-27T02:27:50.952Z,19.48
2018-07-27T02:28:50.940Z,19.51
2018-07-27T02:29:50.944Z,19.40
2018-07-27T02:30:50.929Z,19.33
2018-07-27T02:31:50.928Z,19.31
2018-07-27T02:32:50.905Z,19.24
2018-07-27T02:33:50.996Z,19.39
2018-07-27T02:34:50.877Z,19.29
2018-07-27T02:35:50.864Z,19.24
2018-07-27T02:36:50.878Z,19.14
2018-07-27T02:37:50.845Z,19.21
2018-07-27T02:38:50.845Z,19.22
2018-07-27T02:39:50.851Z,19.16
2018-07-27T02:40:50.811Z,19.21
2018-07-27T02:41:50.824Z,19.22
2018-07-27T02:42:50.789Z,19.18
2018-07-27T02:43:50.778Z,19.26
2018-07-27T02:44:50.769Z,19.30
2018-07-27T02:45:50.757Z,19.31
2018-07-27T02:46:50.764Z,19.33
2018-07-27T02:47:50.734Z,19.37
2018-07-27T02:48:50.723Z,19.39
2018-07-27T02:49:50.714Z,19.36
2018-07-27T02:50:50.703Z,19.44
2018-07-27T02:51:50.713Z,19.51
2018-07-27T02:52:50.682Z,19.56
2018-07-27T02:53:50.671Z,19.54
2018-07-27T02:54:50.662Z,19.58
2018-07-27T02:55:50.651Z,19.48
2018-07-27T02:56:50.660Z,19.48
2018-07-27T02:57:50.647Z,19.45
2018-07-27T02:58:50.616Z,19.39
2018-07-27T02:59:50.609Z,19.39
2018-07-27T03:00:50.594Z,19.29
2018-07-27T03:01:50.605Z,19.29
2018-07-27T03:02:50.572Z,19.19
2018-07-27T03:03:50.568Z,19.09
2018-07-27T03:04:50.551Z,19.09
2018-07-27T03:05:50.541Z,18.86
2018-07-27T03:06:50.548Z,18.84
2018-07-27T03:07:50.522Z,18.75
2018-07-27T03:08:50.507Z,18.56
2018-07-27T03:09:50.573Z,18.58
2018-07-27T03:10:50.486Z,18.53
2018-07-27T03:11:50.494Z,18.45
2018-07-27T03:12:50.463Z,18.38
2018-07-27T03:13:50.472Z,18.38
2018-07-27T03:14:50.448Z,18.25
2018-07-27T03:15:50.450Z,18.25
2018-07-27T03:16:50.444Z,18.10
2018-07-27T03:17:50.409Z,18.13
2018-07-27T03:18:50.415Z,18.04
2018-07-27T03:19:50.398Z,17.97
2018-07-27T03:20:50.377Z,18.00
2018-07-27T03:21:50.411Z,17.95
2018-07-27T03:22:50.358Z,17.86
2018-07-27T03:23:50.349Z,17.82
2018-07-27T03:24:50.352Z,17.78
2018-07-27T03:25:50.323Z,17.71
2018-07-27T03:26:50.333Z,17.74
2018-07-27T03:27:50.302Z,17.70
2018-07-27T03:28:50.295Z,17.68
2018-07-27T03:29:50.281Z,17.59
2018-07-27T03:30:50.285Z,17.60
2018-07-27T03:31:50.323Z,17.51
2018-07-27T03:32:50.249Z,17.51
2018-07-27T03:33:50.239Z,17.34
2018-07-27T03:34:50.229Z,17.41
2018-07-27T03:35:50.230Z,17.39
2018-07-27T03:36:50.207Z,17.33
2018-07-27T03:37:50.218Z,17.24
2018-07-27T03:38:50.186Z,17.24
2018-07-27T03:39:50.187Z,17.29
2018-07-27T03:40:50.167Z,17.16
2018-07-27T03:41:50.180Z,17.14
2018-07-27T03:42:50.171Z,17.16
2018-07-27T03:43:50.174Z,17.05
2018-07-27T03:44:50.123Z,16.99
2018-07-27T03:45:50.111Z,17.02
2018-07-27T03:46:50.100Z,16.99
2018-07-27T03:47:50.089Z,16.97
2018-07-27T03:48:50.101Z,16.87
2018-07-27T03:49:50.071Z,16.87
2018-07-27T03:50:50.084Z,16.79
2018-07-27T03:51:50.050Z,16.84
2018-07-27T03:52:50.041Z,16.83
2018-07-27T03:53:50.044Z,16.89
2018-07-27T03:54:50.030Z,16.87
2018-07-27T03:55:50.008Z,16.87
2018-07-27T03:56:49.996Z,16.96
2018-07-27T03:57:49.985Z,16.94
2018-07-27T03:58:49.991Z,16.93
2018-07-27T03:59:49.964Z,16.91
2018-07-27T04:00:49.952Z,16.76
2018-07-27T04:01:49.943Z,16.78
2018-07-27T04:02:49.940Z,16.76
2018-07-27T04:03:49.952Z,16.72
2018-07-27T04:04:49.909Z,16.72
2018-07-27T04:05:49.896Z,16.71
2018-07-27T04:06:49.917Z,16.68
2018-07-27T04:07:49.875Z,16.65
2018-07-27T04:08:49.893Z,16.66
2018-07-27T04:09:49.855Z,16.72
2018-07-27T04:10:49.842Z,16.65
2018-07-27T04:11:49.831Z,16.72
2018-07-27T04:12:49.823Z,16.69
2018-07-27T04:13:49.826Z,16.78
2018-07-27T04:14:49.865Z,16.86
2018-07-27T04:15:49.796Z,16.86
2018-07-27T04:16:49.808Z,16.78
2018-07-27T04:17:49.786Z,16.87
2018-07-27T04:18:49.756Z,16.93
2018-07-27T04:19:49.766Z,16.84
2018-07-27T04:20:49.733Z,16.84
2018-07-27T04:21:49.731Z,16.83
2018-07-27T04:22:49.724Z,16.79
2018-07-27T04:23:49.708Z,16.84
2018-07-27T04:24:49.729Z,16.81
2018-07-27T04:25:49.680Z,16.87
2018-07-27T04:26:49.669Z,16.91
2018-07-27T04:27:49.668Z,16.97
2018-07-27T04:28:49.650Z,17.01
2018-07-27T04:29:49.638Z,17.05
2018-07-27T04:30:49.647Z,17.02
2018-07-27T04:31:49.631Z,17.11
2018-07-27T04:32:49.605Z,17.14
2018-07-27T04:33:49.592Z,17.14
2018-07-27T04:34:49.585Z,17.23
2018-07-27T04:35:49.601Z,17.23
2018-07-27T04:36:49.570Z,17.29
2018-07-27T04:37:49.550Z,17.29
2018-07-27T04:38:49.539Z,17.36
2018-07-27T04:39:49.568Z,17.41
2018-07-27T04:40:49.537Z,17.44
2018-07-27T04:41:49.506Z,17.57
2018-07-27T04:42:49.520Z,17.65
2018-07-27T04:43:49.486Z,17.60
2018-07-27T04:44:49.478Z,17.78
2018-07-27T04:45:49.493Z,17.86
2018-07-27T04:46:49.455Z,17.95
2018-07-27T04:47:49.446Z,17.97
2018-07-27T04:48:49.435Z,18.05
2018-07-27T04:49:49.420Z,18.01
2018-07-27T04:50:49.427Z,18.00
2018-07-27T04:51:49.398Z,18.13
2018-07-27T04:52:49.387Z,18.07
2018-07-27T04:53:49.386Z,18.11
2018-07-27T04:54:49.374Z,18.25
2018-07-27T04:55:49.381Z,18.10
2018-07-27T04:56:49.357Z,18.18
2018-07-27T04:57:49.334Z,18.38
2018-07-27T04:58:49.329Z,18.44
2018-07-27T04:59:49.318Z,18.62
2018-07-27T05:00:49.358Z,18.60
2018-07-27T05:01:49.305Z,18.75
2018-07-27T05:02:49.290Z,18.75
2018-07-27T05:03:49.282Z,18.88
2018-07-27T05:04:49.281Z,18.95
2018-07-27T05:05:49.313Z,19.08
2018-07-27T05:06:49.284Z,19.14
2018-07-27T05:07:49.230Z,19.22
2018-07-27T05:08:49.221Z,19.22
2018-07-27T05:09:49.226Z,19.33
2018-07-27T05:10:49.195Z,19.55
2018-07-27T05:11:49.265Z,19.58
2018-07-27T05:12:49.175Z,19.66
2018-07-27T05:13:49.163Z,19.81
2018-07-27T05:14:49.152Z,19.91
2018-07-27T05:15:49.151Z,19.96
2018-07-27T05:16:49.163Z,20.07
2018-07-27T05:17:49.122Z,20.21
2018-07-27T05:18:49.109Z,20.32
2018-07-27T05:19:49.097Z,20.34
2018-07-27T05:20:49.086Z,20.51
2018-07-27T05:21:49.093Z,20.58
2018-07-27T05:22:49.064Z,20.70
2018-07-27T05:23:49.055Z,20.75
2018-07-27T05:24:49.047Z,20.78
2018-07-27T05:25:49.035Z,20.90
2018-07-27T05:26:49.044Z,20.85
2018-07-27T05:27:49.010Z,20.96
2018-07-27T05:28:49.024Z,20.97
2018-07-27T05:29:48.989Z,21.00
2018-07-27T05:30:48.979Z,21.07
2018-07-27T05:31:49.006Z,21.03
2018-07-27T05:32:48.964Z,21.02
2018-07-27T05:33:48.965Z,21.03
2018-07-27T05:34:48.938Z,21.06
2018-07-27T05:35:48.924Z,21.11
2018-07-27T05:36:48.932Z,21.07
2018-07-27T05:37:48.904Z,21.14
2018-07-27T05:38:48.904Z,21.14
2018-07-27T05:39:48.883Z,21.20
2018-07-27T05:40:48.869Z,21.18
2018-07-27T05:41:48.878Z,21.18
2018-07-27T05:42:48.852Z,21.17
2018-07-27T05:43:48.849Z,21.20
2018-07-27T05:44:48.828Z,21.22
2018-07-27T05:45:48.820Z,21.22
2018-07-27T05:46:48.866Z,21.25
2018-07-27T05:47:48.824Z,21.24
2018-07-27T05:48:48.796Z,21.29
2018-07-27T05:49:48.776Z,21.30
2018-07-27T05:50:48.782Z,21.33
2018-07-27T05:51:48.788Z,21.36
2018-07-27T05:52:48.756Z,21.35
2018-07-27T05:53:48.754Z,21.46
2018-07-27T05:54:48.724Z,21.57
2018-07-27T05:55:48.718Z,21.66
2018-07-27T05:56:48.726Z,21.70
2018-07-27T05:57:48.692Z,21.69
2018-07-27T05:58:48.677Z,21.80
2018-07-27T05:59:48.676Z,21.80
2018-07-27T06:00:48.655Z,21.85
2018-07-27T06:01:48.645Z,21.95
2018-07-27T06:02:48.673Z,21.98
2018-07-27T06:03:48.623Z,21.98
2018-07-27T06:04:48.661Z,22.04
2018-07-27T06:05:48.601Z,22.23
2018-07-27T06:06:48.594Z,22.28
2018-07-27T06:07:48.620Z,22.47
2018-07-27T06:08:48.606Z,22.48
2018-07-27T06:09:48.565Z,22.62
2018-07-27T06:10:48.580Z,22.75
2018-07-27T06:11:48.541Z,22.76
2018-07-27T06:12:48.549Z,22.76
2018-07-27T06:13:48.518Z,22.94
2018-07-27T06:14:48.512Z,22.96
2018-07-27T06:15:48.495Z,22.91
2018-07-27T06:16:48.485Z,22.90
2018-07-27T06:17:48.574Z,22.90
2018-07-27T06:18:48.463Z,22.94
2018-07-27T06:19:48.452Z,22.93
2018-07-27T06:20:48.443Z,22.98
2018-07-27T06:21:48.435Z,23.03
2018-07-27T06:22:48.444Z,23.08
2018-07-27T06:23:48.461Z,23.08
2018-07-27T06:24:48.428Z,23.27
2018-07-27T06:25:48.400Z,23.18
2018-07-27T06:26:48.378Z,23.31
2018-07-27T06:27:48.426Z,23.32
2018-07-27T06:28:48.374Z,23.32
2018-07-27T06:29:48.374Z,23.31
2018-07-27T06:30:48.335Z,23.32
2018-07-27T06:31:48.328Z,23.32
2018-07-27T06:32:48.334Z,23.39
2018-07-27T06:33:48.320Z,23.44
2018-07-27T06:34:48.300Z,23.46
2018-07-27T06:35:48.285Z,23.55
2018-07-27T06:36:48.285Z,23.54
2018-07-27T06:37:48.285Z,23.51
2018-07-27T06:38:48.284Z,23.61
2018-07-27T06:39:48.278Z,23.55
2018-07-27T06:40:48.228Z,23.65
2018-07-27T06:41:48.217Z,23.68
2018-07-27T06:42:48.227Z,23.73
2018-07-27T06:43:48.196Z,23.83
2018-07-27T06:44:48.193Z,23.73
2018-07-27T06:45:48.177Z,23.87
2018-07-27T06:46:48.166Z,23.86
2018-07-27T06:47:48.175Z,23.95
2018-07-27T06:48:48.148Z,24.03
2018-07-27T06:49:48.137Z,24.02
2018-07-27T06:50:48.143Z,24.14
2018-07-27T06:51:48.110Z,24.26
2018-07-27T06:52:48.118Z,24.23
2018-07-27T06:53:48.089Z,24.21
2018-07-27T06:54:48.079Z,24.20
2018-07-27T06:55:48.067Z,24.28
2018-07-27T06:56:48.057Z,24.32
2018-07-27T06:57:48.067Z,24.38
2018-07-27T06:58:48.034Z,24.36
2018-07-27T06:59:48.028Z,24.38
2018-07-27T07:00:48.038Z,24.42
2018-07-27T07:01:48.002Z,24.36
2018-07-27T07:02:48.012Z,24.40
2018-07-27T07:03:47.982Z,24.51
2018-07-27T07:04:47.972Z,24.48
2018-07-27T07:05:47.964Z,24.58
2018-07-27T07:06:47.959Z,24.51
2018-07-27T07:07:47.967Z,24.69
2018-07-27T07:08:47.928Z,24.70
2018-07-27T07:09:47.919Z,24.81
2018-07-27T07:10:47.910Z,24.88
2018-07-27T07:11:47.929Z,24.89
2018-07-27T07:12:47.887Z,24.88
2018-07-27T07:13:47.895Z,24.88
2018-07-27T07:14:47.863Z,24.78
2018-07-27T07:15:47.865Z,25.01
2018-07-27T07:16:47.841Z,24.99
2018-07-27T07:17:47.833Z,24.99
2018-07-27T07:18:47.840Z,25.06
2018-07-27T07:19:47.842Z,25.14
2018-07-27T07:20:47.800Z,25.26
2018-07-27T07:21:47.793Z,25.32
2018-07-27T07:22:47.806Z,25.43
2018-07-27T07:23:47.860Z,25.51
2018-07-27T07:24:47.779Z,25.60
2018-07-27T07:25:47.988Z,25.62
2018-07-27T07:26:47.736Z,25.60
2018-07-27T07:27:47.725Z,25.69
2018-07-27T07:28:47.721Z,25.60
2018-07-27T07:29:47.723Z,25.63
2018-07-27T07:30:47.712Z,25.62
2018-07-27T07:31:47.695Z,25.77
2018-07-27T07:32:47.677Z,25.80
2018-07-27T07:33:47.665Z,25.96
2018-07-27T07:34:47.671Z,26.05
2018-07-27T07:35:47.642Z,26.02
2018-07-27T07:36:47.633Z,26.16
2018-07-27T07:37:47.621Z,26.22
2018-07-27T07:38:47.610Z,26.26
2018-07-27T07:39:47.619Z,26.34
2018-07-27T07:40:47.590Z,26.40
2018-07-27T07:41:47.593Z,26.53
2018-07-27T07:42:47.572Z,26.51
2018-07-27T07:43:47.576Z,26.66
2018-07-27T07:44:47.574Z,26.75
2018-07-27T07:45:47.545Z,26.81
2018-07-27T07:46:47.524Z,26.88
2018-07-27T07:47:47.517Z,26.97
2018-07-27T07:48:47.504Z,27.03
2018-07-27T07:49:47.501Z,27.18
2018-07-27T07:50:47.508Z,27.17
2018-07-27T07:51:47.474Z,27.18
2018-07-27T07:52:47.463Z,27.22
2018-07-27T07:53:47.490Z,27.33
2018-07-27T07:54:47.438Z,27.33
2018-07-27T07:55:47.447Z,27.22
2018-07-27T07:56:47.416Z,27.25
2018-07-27T07:57:47.409Z,27.18
2018-07-27T07:58:47.414Z,27.10
2018-07-27T07:59:47.383Z,27.08
2018-07-27T08:00:47.394Z,27.05
2018-07-27T08:01:47.362Z,27.03
2018-07-27T08:02:47.355Z,27.11
2018-07-27T08:03:47.351Z,27.18
2018-07-27T08:04:47.331Z,27.17
2018-07-27T08:05:47.350Z,27.17
2018-07-27T08:06:47.308Z,27.33
2018-07-27T08:07:47.297Z,27.40
2018-07-27T08:08:47.300Z,27.48
2018-07-27T08:09:47.276Z,27.59
2018-07-27T08:10:47.306Z,27.68
2018-07-27T08:11:47.338Z,27.75
2018-07-27T08:12:47.305Z,27.82
2018-07-27T08:13:47.339Z,27.95
2018-07-27T08:14:47.267Z,28.00
2018-07-27T08:15:47.252Z,28.20
2018-07-27T08:16:47.400Z,28.25
2018-07-27T08:17:47.318Z,28.30
2018-07-27T08:18:47.252Z,28.41
2018-07-27T08:19:47.187Z,28.52
2018-07-27T08:20:47.175Z,28.62
2018-07-27T08:21:47.170Z,28.67
2018-07-27T08:22:47.142Z,28.85
2018-07-27T08:23:47.143Z,28.96
2018-07-27T08:24:47.120Z,29.20
2018-07-27T08:25:47.110Z,29.20
2018-07-27T08:26:47.136Z,29.22
2018-07-27T08:27:47.111Z,29.44
2018-07-27T08:28:47.077Z,29.42
2018-07-27T08:29:47.067Z,29.41
2018-07-27T08:30:47.085Z,29.49
2018-07-27T08:31:47.065Z,29.59
2018-07-27T08:32:47.064Z,29.81
2018-07-27T08:33:47.025Z,29.90
2018-07-27T08:34:47.030Z,30.08
2018-07-27T08:35:47.027Z,30.21
2018-07-27T08:36:47.002Z,30.48
2018-07-27T08:37:47.010Z,30.47
2018-07-27T08:38:46.987Z,30.66
2018-07-27T08:39:47.026Z,30.81
2018-07-27T08:40:46.955Z,30.84
2018-07-27T08:41:46.972Z,30.88
2018-07-27T08:42:46.938Z,30.99
2018-07-27T08:43:46.949Z,31.09
2018-07-27T08:44:46.917Z,31.09
2018-07-27T08:45:46.906Z,31.29
2018-07-27T08:46:46.896Z,31.49
2018-07-27T08:47:46.913Z,31.59
2018-07-27T08:48:46.914Z,31.64
2018-07-27T08:49:46.874Z,31.70
2018-07-27T08:50:46.858Z,31.74
2018-07-27T08:51:46.858Z,31.94
2018-07-27T08:52:46.860Z,31.96
2018-07-27T08:53:46.894Z,32.00
2018-07-27T08:54:46.829Z,32.08
2018-07-27T08:55:46.812Z,32.19
2018-07-27T08:56:46.822Z,32.27
2018-07-27T08:57:46.792Z,32.33
2018-07-27T08:58:46.792Z,32.36
2018-07-27T08:59:46.771Z,32.49
2018-07-27T09:00:46.768Z,32.65
2018-07-27T09:01:46.761Z,32.87
2018-07-27T09:02:46.801Z,33.01
2018-07-27T09:03:46.788Z,33.22
2018-07-27T09:04:46.723Z,33.32
2018-07-27T09:05:46.726Z,33.58
2018-07-27T09:06:46.703Z,33.76
2018-07-27T09:07:46.715Z,33.86
2018-07-27T09:08:46.684Z,34.01
2018-07-27T09:09:46.674Z,34.10
2018-07-27T09:10:46.666Z,34.13
2018-07-27T09:11:46.656Z,34.13
2018-07-27T09:12:46.681Z,34.21
2018-07-27T09:13:46.676Z,34.32
2018-07-27T09:14:46.629Z,34.35
2018-07-27T09:15:46.617Z,34.36
2018-07-27T09:16:46.606Z,34.40
2018-07-27T09:17:46.617Z,34.29
2018-07-27T09:18:46.592Z,34.32
2018-07-27T09:19:46.587Z,34.32
2018-07-27T09:20:46.570Z,34.23
2018-07-27T09:21:46.573Z,34.48
2018-07-27T09:22:46.568Z,34.57
2018-07-27T09:23:46.550Z,34.52
2018-07-27T09:24:46.686Z,34.52
2018-07-27T09:25:46.529Z,34.57
2018-07-27T09:26:46.515Z,34.54
2018-07-27T09:27:46.531Z,34.38
2018-07-27T09:28:46.497Z,34.39
2018-07-27T09:29:46.497Z,34.40
2018-07-27T09:30:46.491Z,34.42
2018-07-27T09:31:46.466Z,34.54
2018-07-27T09:32:46.464Z,34.58
2018-07-27T09:33:46.471Z,34.62
2018-07-27T09:34:46.437Z,34.75
2018-07-27T09:35:46.430Z,34.85
2018-07-27T09:36:46.418Z,34.92
2018-07-27T09:37:46.414Z,34.74
2018-07-27T09:38:46.399Z,34.88
2018-07-27T09:39:46.391Z,34.85
2018-07-27T09:40:46.380Z,34.80
2018-07-27T09:41:46.369Z,34.96
2018-07-27T09:42:46.362Z,34.93
2018-07-27T09:43:46.353Z,34.92
2018-07-27T09:44:46.345Z,34.99
2018-07-27T09:45:46.330Z,34.99
2018-07-27T09:46:46.356Z,34.96
2018-07-27T09:47:46.356Z,35.05
2018-07-27T09:48:46.323Z,35.14
2018-07-27T09:49:46.298Z,35.39
2018-07-27T09:50:46.280Z,35.30
2018-07-27T09:51:46.357Z,35.33
2018-07-27T09:52:46.319Z,35.31
2018-07-27T09:53:46.280Z,35.26
2018-07-27T09:54:46.240Z,35.26
2018-07-27T09:55:46.232Z,35.27
2018-07-27T09:56:46.225Z,35.30
2018-07-27T09:57:46.279Z,35.24
2018-07-27T09:58:46.247Z,35.19
2018-07-27T09:59:46.190Z,35.05
2018-07-27T10:00:46.185Z,34.99
2018-07-27T10:01:46.202Z,34.93
2018-07-27T10:02:46.166Z,34.90
2018-07-27T10:03:46.153Z,34.74
2018-07-27T10:04:46.140Z,34.58
2018-07-27T10:05:46.182Z,34.42
2018-07-27T10:06:46.124Z,34.13
2018-07-27T10:07:46.137Z,34.13
2018-07-27T10:08:46.116Z,33.95
2018-07-27T10:09:46.090Z,33.86
2018-07-27T10:10:46.077Z,33.68
2018-07-27T10:11:46.068Z,33.64
2018-07-27T10:12:46.112Z,33.47
2018-07-27T10:13:46.075Z,33.40
2018-07-27T10:14:46.046Z,33.30
2018-07-27T10:15:46.027Z,33.17
2018-07-27T10:16:46.022Z,33.04
2018-07-27T10:17:46.006Z,32.97
2018-07-27T10:18:45.995Z,32.93
2018-07-27T10:19:45.987Z,32.86
2018-07-27T10:20:45.974Z,32.86
2018-07-27T10:21:45.966Z,33.00
2018-07-27T10:22:45.961Z,33.05
2018-07-27T10:23:45.960Z,33.17
2018-07-27T10:24:45.992Z,33.28
2018-07-27T10:25:45.938Z,33.34
2018-07-27T10:26:45.912Z,33.36
2018-07-27T10:27:45.901Z,33.49
2018-07-27T10:28:45.890Z,33.42
2018-07-27T10:29:45.883Z,33.43
2018-07-27T10:30:45.868Z,33.50
2018-07-27T10:31:45.875Z,33.52
2018-07-27T10:32:45.851Z,33.49
2018-07-27T10:33:45.838Z,33.64
2018-07-27T10:34:45.830Z,33.61
2018-07-27T10:35:45.820Z,33.68
2018-07-27T10:36:45.822Z,33.69
2018-07-27T10:37:46.009Z,33.67
2018-07-27T10:38:45.794Z,33.76
2018-07-27T10:39:45.844Z,33.86
2018-07-27T10:40:45.764Z,33.76
2018-07-27T10:41:45.752Z,33.65
2018-07-27T10:42:45.832Z,33.68
2018-07-27T10:43:45.748Z,33.67
2018-07-27T10:44:45.732Z,33.71
2018-07-27T10:45:45.713Z,33.87
2018-07-27T10:46:45.714Z,33.87
2018-07-27T10:47:45.696Z,33.92
2018-07-27T10:48:45.697Z,33.87
2018-07-27T10:49:45.669Z,33.92
2018-07-27T10:50:45.662Z,33.96
2018-07-27T10:51:45.676Z,33.89
2018-07-27T10:52:45.642Z,33.94
2018-07-27T10:53:45.630Z,34.01
2018-07-27T10:54:45.617Z,33.95
2018-07-27T10:55:45.613Z,33.99
2018-07-27T10:56:45.596Z,33.84
2018-07-27T10:57:45.585Z,33.73
2018-07-27T10:58:45.576Z,33.80
2018-07-27T10:59:45.566Z,33.92
2018-07-27T11:00:45.581Z,33.98
2018-07-27T11:01:45.548Z,34.14
2018-07-27T11:02:45.786Z,34.10
2018-07-27T11:03:45.524Z,34.20
2018-07-27T11:04:45.543Z,34.24
2018-07-27T11:05:45.504Z,34.21
2018-07-27T11:06:45.498Z,34.24
2018-07-27T11:07:45.483Z,34.17
2018-07-27T11:08:45.478Z,34.10
2018-07-27T11:09:45.472Z,34.03
2018-07-27T11:10:45.481Z,33.99
2018-07-27T11:11:45.451Z,34.06
2018-07-27T11:12:45.432Z,34.16
2018-07-27T11:13:45.423Z,34.17
2018-07-27T11:14:45.416Z,34.32
2018-07-27T11:15:45.402Z,34.32
2018-07-27T11:16:45.404Z,34.48
2018-07-27T11:17:45.453Z,34.60
2018-07-27T11:18:45.374Z,34.70
2018-07-27T11:19:45.368Z,34.71
2018-07-27T11:20:45.353Z,34.77
2018-07-27T11:21:45.364Z,34.86
2018-07-27T11:22:45.335Z,34.81
2018-07-27T11:23:45.325Z,34.90
2018-07-27T11:24:45.318Z,34.86
2018-07-27T11:25:45.309Z,35.04
2018-07-27T11:26:45.326Z,34.99
2018-07-27T11:27:45.290Z,35.12
2018-07-27T11:28:45.285Z,35.22
2018-07-27T11:29:45.278Z,35.46
2018-07-27T11:30:45.281Z,35.63
2018-07-27T11:31:45.340Z,36.12
2018-07-27T11:32:45.291Z,36.62
2018-07-27T11:33:45.262Z,37.11
2018-07-27T11:34:45.237Z,37.39
2018-07-27T11:35:45.231Z,37.65
2018-07-27T11:36:45.232Z,37.97
2018-07-27T11:37:45.215Z,38.30
2018-07-27T11:38:45.220Z,38.77
2018-07-27T11:39:45.197Z,39.09
2018-07-27T11:40:45.189Z,39.46
2018-07-27T11:41:45.208Z,39.68
2018-07-27T11:42:45.180Z,39.92
2018-07-27T11:43:45.175Z,40.21
2018-07-27T11:44:45.163Z,40.70
2018-07-27T11:45:45.162Z,41.21
2018-07-27T11:46:45.180Z,41.40
2018-07-27T11:47:45.176Z,41.60
2018-07-27T11:48:45.129Z,41.45
2018-07-27T11:49:45.125Z,41.45
2018-07-27T11:50:45.119Z,41.45
2018-07-27T11:51:45.139Z,41.68
2018-07-27T11:52:45.105Z,41.63
2018-07-27T11:53:45.101Z,41.83
2018-07-27T11:54:45.090Z,42.13
2018-07-27T11:55:45.113Z,42.32
2018-07-27T11:56:45.103Z,42.39
2018-07-27T11:57:45.066Z,42.65
2018-07-27T11:58:45.084Z,42.79
2018-07-27T11:59:45.061Z,42.94
2018-07-27T12:00:45.048Z,43.04
2018-07-27T12:01:45.119Z,43.24
2018-07-27T12:02:45.038Z,43.69
2018-07-27T12:03:45.042Z,44.01
2018-07-27T12:04:45.021Z,44.36
2018-07-27T12:05:45.079Z,44.36
2018-07-27T12:06:45.023Z,43.94
2018-07-27T12:07:45.003Z,43.53
2018-07-27T12:08:44.995Z,43.42
2018-07-27T12:09:45.044Z,43.45
2018-07-27T12:10:45.000Z,43.84
2018-07-27T12:11:44.991Z,43.74
2018-07-27T12:12:44.986Z,43.49
2018-07-27T12:13:45.035Z,43.50
2018-07-27T12:14:45.029Z,43.41
2018-07-27T12:15:44.945Z,43.62
2018-07-27T12:16:44.942Z,43.80
2018-07-27T12:17:44.935Z,43.67
2018-07-27T12:18:44.933Z,43.89
2018-07-27T12:19:44.927Z,43.68
2018-07-27T12:20:45.021Z,43.55
2018-07-27T12:21:45.286Z,43.80
2018-07-27T12:22:44.910Z,43.91
2018-07-27T12:23:44.895Z,44.18
2018-07-27T12:24:44.928Z,44.27
2018-07-27T12:25:44.890Z,44.61
2018-07-27T12:26:44.882Z,44.91
2018-07-27T12:27:44.890Z,45.10
2018-07-27T12:28:44.865Z,45.18
2018-07-27T12:29:44.897Z,45.22
2018-07-27T12:30:44.889Z,45.34
2018-07-27T12:31:44.872Z,45.66
2018-07-27T12:32:44.934Z,45.53
2018-07-27T12:33:44.836Z,44.40
2018-07-27T12:34:44.832Z,44.14
2018-07-27T12:35:44.831Z,44.61
2018-07-27T12:36:44.831Z,45.18
2018-07-27T12:37:44.813Z,45.37
2018-07-27T12:38:44.803Z,45.70
2018-07-27T12:39:44.804Z,45.58
2018-07-27T12:40:45.175Z,45.75
2018-07-27T12:41:45.019Z,46.22
2018-07-27T12:42:44.871Z,46.19
2018-07-27T12:43:44.778Z,46.10
2018-07-27T12:44:44.773Z,46.04
2018-07-27T12:45:44.798Z,45.81
2018-07-27T12:46:44.776Z,46.20
2018-07-27T12:47:44.828Z,45.92
2018-07-27T12:48:44.777Z,45.80
2018-07-27T12:49:44.759Z,45.68
2018-07-27T12:50:44.729Z,45.87
2018-07-27T12:51:44.782Z,45.96
2018-07-27T12:52:44.789Z,45.88